Time;durP1;ratioP1;P1;durP2;ratioP2;P2;SDS_P1;SDS_P2;PMS_P1;PMS_P2;Temp;Humidity;BMP_temperature;BMP_pressure;BME280_temperature;BME280_humidity;BME280_pressure;Samples;Min_cycle;Max_cycle;Signal;HPM_P1;HPM_P2
2022/04/06 00:00:35;;;;;;;23.77;9.67;;;;;;;8.70;92.21;100338.16;5053974;28;20037;-80
2022/04/06 00:03:01;;;;;;;28.47;9.60;;;;;;;8.63;92.67;100337.34;5039805;28;20045;-83
2022/04/06 00:05:26;;;;;;;26.50;9.80;;;;;;;8.72;92.23;100352.28;5039468;28;20048;-80
2022/04/06 00:07:52;;;;;;;24.17;9.50;;;;;;;8.67;91.80;100339.41;5041318;28;20401;-78
2022/04/06 00:10:17;;;;;;;24.10;10.23;;;;;;;8.55;92.37;100325.69;5039703;28;20041;-79
2022/04/06 00:12:42;;;;;;;23.47;9.30;;;;;;;8.68;92.20;100346.47;5039942;28;20044;-82
2022/04/06 00:15:10;;;;;;;22.70;9.43;;;;;;;8.65;91.94;100332.53;5055171;28;20115;-80
2022/04/06 00:17:37;;;;;;;24.80;10.33;;;;;;;8.66;92.06;100342.31;5040484;28;20401;-81
2022/04/06 00:20:04;;;;;;;24.03;9.53;;;;;;;8.53;92.27;100322.41;5019932;28;20039;-87
2022/04/06 00:22:30;;;;;;;23.43;9.70;;;;;;;8.60;92.04;100331.31;5039058;28;20095;-80
2022/04/06 00:24:56;;;;;;;25.57;9.87;;;;;;;8.67;92.16;100341.28;5037600;28;21796;-80
2022/04/06 00:27:22;;;;;;;27.17;10.30;;;;;;;8.46;92.38;100313.50;5039243;28;20435;-84
2022/04/06 00:29:49;;;;;;;22.13;9.23;;;;;;;8.52;92.33;100311.81;5038642;28;20469;-81
2022/04/06 00:32:14;;;;;;;25.87;9.67;;;;;;;8.57;92.36;100334.44;5034650;28;20098;-82
2022/04/06 00:37:24;;;;;;;25.55;9.35;;;;;;;8.44;92.23;100313.69;5038844;28;20059;-81
2022/04/06 00:39:49;;;;;;;24.67;8.93;;;;;;;8.51;92.74;100315.56;5039483;28;20036;-79
2022/04/06 00:42:15;;;;;;;24.37;8.83;;;;;;;8.51;92.14;100312.84;5040316;28;20037;-87
2022/04/06 00:44:40;;;;;;;24.43;8.80;;;;;;;8.55;92.21;100316.78;5040526;28;20480;-84
2022/04/06 00:47:07;;;;;;;24.00;9.60;;;;;;;8.63;92.00;100332.75;5053684;28;20761;-85
2022/04/06 00:49:33;;;;;;;22.20;9.00;;;;;;;8.43;91.91;100297.66;5052569;28;20487;-83
2022/04/06 00:52:01;;;;;;;21.90;8.20;;;;;;;8.47;91.77;100306.22;5040339;28;20029;-84
2022/04/06 00:54:29;;;;;;;23.20;8.77;;;;;;;8.48;91.69;100306.00;5036392;28;20032;-84
2022/04/06 00:56:55;;;;;;;25.80;8.90;;;;;;;8.44;92.10;100302.03;5037157;28;20461;-82
2022/04/06 00:59:20;;;;;;;24.47;8.20;;;;;;;8.59;92.07;100329.69;5039616;28;20020;-83
2022/04/06 01:01:48;;;;;;;25.40;8.73;;;;;;;8.52;91.95;100315.34;5037917;28;20044;-83
2022/04/06 01:04:15;;;;;;;24.87;9.03;;;;;;;8.41;91.72;100288.97;5037497;28;20632;-81
2022/04/06 01:06:41;;;;;;;24.53;8.87;;;;;;;8.45;91.35;100292.94;5039676;28;20029;-85
2022/04/06 01:09:07;;;;;;;20.07;7.87;;;;;;;8.60;91.51;100317.00;5037670;28;20040;-81
2022/04/06 01:11:33;;;;;;;23.43;7.60;;;;;;;8.47;91.53;100295.41;5038605;28;20037;-80
2022/04/06 01:13:59;;;;;;;22.40;7.60;;;;;;;8.47;91.72;100295.41;5052984;28;20041;-84
2022/04/06 01:16:24;;;;;;;24.47;8.10;;;;;;;8.47;91.50;100298.94;5038085;28;20043;-84
2022/04/06 01:18:50;;;;;;;21.40;7.50;;;;;;;8.36;91.40;100283.38;5038663;28;20037;-86
2022/04/06 01:21:15;;;;;;;22.10;7.40;;;;;;;8.54;91.72;100301.63;5038824;28;20419;-82
2022/04/06 01:23:42;;;;;;;23.13;7.50;;;;;;;8.36;91.42;100276.09;5035810;28;20041;-84
2022/04/06 01:26:09;;;;;;;22.20;7.60;;;;;;;8.31;91.57;100273.22;5038287;28;20029;-83
2022/04/06 01:28:34;;;;;;;23.63;8.00;;;;;;;8.47;91.42;100304.34;5038183;28;20094;-87
2022/04/06 01:30:59;;;;;;;23.47;7.10;;;;;;;8.52;91.45;100325.31;5037464;28;20036;-82
2022/04/06 01:33:25;;;;;;;21.27;7.10;;;;;;;8.50;91.46;100303.94;5038488;28;20036;-87
2022/04/06 01:35:50;;;;;;;26.43;7.77;;;;;;;8.31;91.12;100267.81;5037797;28;20044;-86
2022/04/06 01:38:16;;;;;;;23.60;7.13;;;;;;;8.39;90.97;100288.34;5038914;28;20224;-84
2022/04/06 01:40:41;;;;;;;18.50;6.83;;;;;;;8.40;90.67;100280.03;5038382;28;20360;-87
2022/04/06 01:43:07;;;;;;;21.73;7.90;;;;;;;8.31;91.05;100266.97;5040870;28;20476;-85
2022/04/06 01:45:32;;;;;;;20.57;6.80;;;;;;;8.40;90.99;100281.91;5041526;28;20045;-83
2022/04/06 01:47:58;;;;;;;23.40;7.30;;;;;;;8.27;90.83;100253.91;5043792;28;20044;-83
2022/04/06 01:53:07;;;;;;;20.95;6.57;;;;;;;8.46;90.19;100283.81;5042297;28;20059;-83
2022/04/06 01:55:33;;;;;;;20.67;7.10;;;;;;;8.43;90.14;100287.72;5040976;28;20028;-81
2022/04/06 01:57:59;;;;;;;19.83;6.27;;;;;;;8.42;90.16;100279.84;5042922;28;20033;-82
2022/04/06 02:00:26;;;;;;;21.50;7.07;;;;;;;8.32;90.20;100266.75;5040353;28;20047;-82
2022/04/06 02:02:53;;;;;;;20.93;6.60;;;;;;;8.40;89.98;100273.81;5041983;28;20036;-84
2022/04/06 02:05:20;;;;;;;20.77;6.27;;;;;;;8.33;89.48;100268.41;5041208;28;20037;-84
2022/04/06 02:07:49;;;;;;;19.17;5.97;;;;;;;8.31;89.74;100261.56;5041454;28;20144;-78
2022/04/06 02:10:15;;;;;;;21.70;6.30;;;;;;;8.22;89.48;100251.00;5041634;28;20048;-84
2022/04/06 02:12:42;;;;;;;20.07;6.33;;;;;;;8.26;89.52;100260.31;5057701;28;20129;-84
2022/04/06 02:15:12;;;;;;;20.17;6.27;;;;;;;8.25;89.24;100253.28;5042219;28;20066;-84
2022/04/06 02:17:39;;;;;;;17.93;6.07;;;;;;;8.30;89.14;100262.63;5041573;28;20128;-83
2022/04/06 02:20:05;;;;;;;21.77;5.50;;;;;;;8.36;88.86;100267.97;5042432;28;20047;-82
2022/04/06 02:22:31;;;;;;;24.37;5.83;;;;;;;8.31;88.32;100258.88;5057355;28;20084;-83
2022/04/06 02:24:56;;;;;;;20.43;6.23;;;;;;;8.21;88.53;100243.94;5044088;28;20033;-83
2022/04/06 02:27:22;;;;;;;18.70;5.30;;;;;;;8.35;88.75;100265.50;5054691;28;20047;-83
2022/04/06 02:29:48;;;;;;;20.73;5.40;;;;;;;8.29;88.64;100250.97;5040956;28;20048;-80
2022/04/06 02:32:13;;;;;;;20.87;5.23;;;;;;;8.19;88.37;100234.41;5041308;28;20032;-85
2022/04/06 02:34:39;;;;;;;15.17;5.47;;;;;;;8.25;87.98;100250.59;5042132;28;20039;-85
2022/04/06 02:37:06;;;;;;;21.07;5.60;;;;;;;8.24;87.82;100248.94;5023386;28;20045;-82
2022/04/06 02:39:32;;;;;;;19.03;5.43;;;;;;;8.27;88.09;100255.78;5040821;28;20047;-83
2022/04/06 02:41:57;;;;;;;16.10;4.60;;;;;;;8.16;88.07;100237.50;5039690;28;20029;-86
2022/04/06 02:44:23;;;;;;;21.20;5.50;;;;;;;8.28;87.78;100255.56;5041033;28;20622;-83
2022/04/06 02:46:49;;;;;;;19.83;5.03;;;;;;;8.15;87.73;100234.00;5056331;28;20043;-83
2022/04/06 02:49:15;;;;;;;15.40;5.27;;;;;;;8.19;87.88;100239.81;5040320;28;20583;-86
2022/04/06 02:51:41;;;;;;;17.27;4.97;;;;;;;8.10;88.10;100233.78;5040217;28;20033;-81
2022/04/06 02:54:06;;;;;;;16.50;5.07;;;;;;;8.11;87.74;100227.38;5038706;28;20044;-84
2022/04/06 02:56:32;;;;;;;20.03;4.80;;;;;;;8.22;87.28;100250.19;5039986;28;20134;-83
2022/04/06 02:58:58;;;;;;;19.27;4.90;;;;;;;8.01;87.46;100219.72;5040119;28;20114;-81
2022/04/06 03:01:23;;;;;;;18.17;4.83;;;;;;;8.11;87.13;100232.75;5038629;28;20040;-83
2022/04/06 03:03:49;;;;;;;16.93;4.77;;;;;;;8.04;87.08;100218.47;5040090;28;20040;-87
2022/04/06 03:06:15;;;;;;;19.47;5.10;;;;;;;8.06;87.21;100225.28;5040178;28;20044;-85
2022/04/06 03:08:40;;;;;;;27.87;5.43;;;;;;;8.06;87.14;100225.28;5039865;28;20075;-89
2022/04/06 03:11:06;;;;;;;16.77;4.27;;;;;;;8.02;86.82;100217.84;5040058;28;20082;-85
2022/04/06 03:13:31;;;;;;;21.17;5.23;;;;;;;7.99;87.10;100221.78;5040543;28;20033;-85
2022/04/06 03:15:57;;;;;;;19.80;5.27;;;;;;;8.08;86.53;100234.00;5040564;28;20033;-82
2022/04/06 03:18:22;;;;;;;15.03;4.60;;;;;;;7.99;86.77;100210.16;5037515;28;20120;-85
2022/04/06 03:20:48;;;;;;;17.43;4.53;;;;;;;7.97;86.64;100217.63;5038356;28;20024;-87
2022/04/06 03:23:15;;;;;;;15.07;4.30;;;;;;;7.96;86.72;100213.28;5039149;28;20075;-83
2022/04/06 03:25:41;;;;;;;14.33;4.20;;;;;;;7.94;86.42;100208.09;5039591;28;20349;-83
2022/04/06 03:28:07;;;;;;;15.60;4.47;;;;;;;7.93;85.73;100203.75;5038254;28;20436;-86
2022/04/06 03:30:32;;;;;;;19.57;4.67;;;;;;;7.93;85.83;100201.88;5040737;28;20041;-84
2022/04/06 03:32:58;;;;;;;16.30;4.17;;;;;;;7.89;85.84;100189.84;5040436;28;20037;-85
2022/04/06 03:35:23;;;;;;;15.73;4.40;;;;;;;7.87;85.34;100191.09;5040645;28;20144;-83
2022/04/06 03:37:50;;;;;;;18.07;4.43;;;;;;;7.91;85.68;100195.88;5038433;28;20033;-86
2022/04/06 03:40:16;;;;;;;14.03;4.47;;;;;;;7.83;85.90;100171.78;5036443;28;20484;-80
2022/04/06 03:42:42;;;;;;;17.83;4.60;;;;;;;7.86;85.10;100184.03;5026362;28;20048;-82
2022/04/06 03:45:08;;;;;;;17.77;4.33;;;;;;;7.82;84.91;100164.75;5037797;28;20169;-82
2022/04/06 03:47:35;;;;;;;15.77;4.37;;;;;;;7.85;85.30;100175.13;5040215;28;20044;-83
2022/04/06 03:50:02;;;;;;;17.27;4.43;;;;;;;7.78;85.20;100158.94;5054106;28;20600;-80
2022/04/06 03:52:27;;;;;;;15.27;4.00;;;;;;;7.76;84.19;100169.13;5039730;28;20090;-85
2022/04/06 03:54:53;;;;;;;15.60;4.10;;;;;;;7.82;84.43;100172.84;5039693;28;20423;-81
2022/04/06 03:57:19;;;;;;;14.93;3.97;;;;;;;7.94;84.09;100187.34;5039437;28;20061;-79
2022/04/06 03:59:44;;;;;;;13.07;3.53;;;;;;;7.87;83.72;100173.03;5040310;28;20445;-85
2022/04/06 04:02:10;;;;;;;14.17;3.90;;;;;;;7.84;83.82;100168.06;5038635;28;20033;-84
2022/04/06 04:04:35;;;;;;;14.37;3.57;;;;;;;7.95;83.65;100185.47;5038896;28;20436;-84
2022/04/06 04:07:01;;;;;;;14.30;3.73;;;;;;;7.86;83.52;100179.47;5038168;28;20037;-85
2022/04/06 04:09:28;;;;;;;16.60;4.20;;;;;;;7.86;83.24;100182.19;5039090;28;20060;-80
2022/04/06 04:11:56;;;;;;;14.90;3.70;;;;;;;7.95;82.46;100182.78;5037667;28;20094;-83
2022/04/06 04:14:22;;;;;;;11.23;3.50;;;;;;;7.84;82.19;100162.66;5040185;28;20048;-81
2022/04/06 04:16:47;;;;;;;15.00;4.57;;;;;;;7.91;82.81;100177.00;5038547;28;20036;-88
2022/04/06 04:19:13;;;;;;;13.50;3.60;;;;;;;7.83;82.51;100169.09;5038744;28;20487;-87
2022/04/06 04:21:38;;;;;;;14.00;3.87;;;;;;;8.04;82.33;100195.00;5039012;28;20071;-85
2022/04/06 04:24:08;;;;;;;14.97;3.33;;;;;;;7.87;82.55;100167.63;5039063;28;20048;-89
2022/04/06 04:26:34;;;;;;;8.70;3.23;;;;;;;7.89;82.79;100176.34;5038239;28;20527;-84
2022/04/06 04:29:00;;;;;;;14.27;3.90;;;;;;;7.89;82.24;100175.53;5037694;28;20138;-82
2022/04/06 04:31:28;;;;;;;12.73;3.30;;;;;;;7.80;82.08;100155.22;5038238;28;20176;-82
2022/04/06 04:33:53;;;;;;;12.87;3.40;;;;;;;7.88;82.35;100173.88;5054688;28;20090;-81
2022/04/06 04:36:19;;;;;;;16.17;3.87;;;;;;;7.89;81.98;100176.34;5037923;28;20032;-80
2022/04/06 04:38:45;;;;;;;13.63;3.70;;;;;;;7.91;82.12;100174.28;5038908;28;20103;-81
2022/04/06 04:41:11;;;;;;;11.53;3.33;;;;;;;7.89;82.00;100165.56;5053863;28;20119;-80
2022/04/06 04:43:36;;;;;;;13.20;3.33;;;;;;;7.85;82.38;100153.53;5038516;28;20056;-91
2022/04/06 04:46:03;;;;;;;12.03;3.50;;;;;;;7.83;82.37;100154.78;5037380;28;20052;-82
2022/04/06 04:48:29;;;;;;;16.33;3.73;;;;;;;7.91;82.57;100160.81;5036173;28;20141;-84
2022/04/06 04:50:54;;;;;;;16.37;3.77;;;;;;;7.91;82.70;100147.31;5035146;28;20064;-81
2022/04/06 04:53:20;;;;;;;18.63;4.27;;;;;;;7.96;83.34;100156.66;5035501;28;20041;-83
2022/04/06 04:55:45;;;;;;;13.60;4.53;;;;;;;7.86;83.31;100149.81;5039083;28;20036;-80
2022/04/06 04:58:11;;;;;;;14.67;4.37;;;;;;;7.87;83.17;100134.44;5038489;28;20721;-83
2022/04/06 05:00:36;;;;;;;17.87;4.40;;;;;;;7.95;83.53;100161.19;5038158;28;20040;-82
2022/04/06 05:03:02;;;;;;;16.00;4.40;;;;;;;7.89;84.05;100135.09;5038393;28;20056;-80
2022/04/06 05:05:28;;;;;;;18.97;5.57;;;;;;;8.07;84.30;100169.47;5038156;28;20098;-81
2022/04/06 05:07:54;;;;;;;16.83;5.20;;;;;;;7.94;84.57;100135.25;5038411;28;20481;-85
2022/04/06 05:10:19;;;;;;;19.53;5.13;;;;;;;7.95;84.62;100155.78;5037998;28;20044;-78
2022/04/06 05:12:45;;;;;;;18.17;5.33;;;;;;;7.93;85.03;100142.53;5038500;28;20037;-79
2022/04/06 05:15:12;;;;;;;18.23;5.77;;;;;;;7.93;85.09;100141.72;5038266;28;20025;-84
2022/04/06 05:17:38;;;;;;;19.57;5.70;;;;;;;7.94;85.39;100132.56;5037638;28;20132;-81
2022/04/06 05:20:05;;;;;;;18.80;5.93;;;;;;;8.03;85.60;100149.34;5035465;28;20362;-79
2022/04/06 05:22:31;;;;;;;17.57;5.70;;;;;;;7.97;85.56;100128.59;5051630;28;20479;-87
2022/04/06 05:24:57;;;;;;;19.37;5.80;;;;;;;7.92;85.65;100121.97;5038635;28;20049;-86
2022/04/06 05:27:22;;;;;;;17.80;6.17;;;;;;;7.98;85.73;100132.97;5036404;28;20072;-81
2022/04/06 05:29:48;;;;;;;16.90;5.90;;;;;;;8.03;85.73;100141.25;5037225;28;20105;-79
2022/04/06 05:32:13;;;;;;;19.57;5.90;;;;;;;8.00;85.21;100129.03;5038129;28;21297;-81
2022/04/06 05:34:38;;;;;;;22.90;6.40;;;;;;;7.99;85.21;100130.06;5037980;28;20044;-81
2022/04/06 05:37:04;;;;;;;22.80;6.73;;;;;;;8.05;85.59;100137.31;5037238;28;20045;-83
2022/04/06 05:39:30;;;;;;;23.70;6.23;;;;;;;7.97;85.42;100115.13;5039228;28;20047;-80
2022/04/06 05:41:55;;;;;;;19.97;5.97;;;;;;;8.17;84.65;100126.66;5039571;28;20167;-84
2022/04/06 05:44:21;;;;;;;21.13;5.90;;;;;;;8.03;84.93;100123.19;5038206;28;20045;-81
2022/04/06 05:46:46;;;;;;;18.50;5.40;;;;;;;8.01;84.75;100113.66;5038490;28;20044;-81
2022/04/06 05:49:12;;;;;;;14.70;5.20;;;;;;;7.97;84.43;100102.47;5038387;28;20094;-78
2022/04/06 05:51:37;;;;;;;20.23;6.07;;;;;;;8.10;84.64;100128.56;5038495;28;20519;-79
2022/04/06 05:54:06;;;;;;;18.07;5.63;;;;;;;8.14;84.88;100134.38;5038075;28;20044;-79
2022/04/06 05:56:31;;;;;;;17.10;5.07;;;;;;;8.04;84.35;100121.34;5052219;28;20158;-79
2022/04/06 05:58:57;;;;;;;19.07;5.27;;;;;;;8.00;83.82;100110.13;5038334;28;20548;-88
2022/04/06 06:01:22;;;;;;;18.50;5.23;;;;;;;7.99;84.24;100104.97;5036981;28;20043;-79
2022/04/06 06:03:48;;;;;;;13.70;4.73;;;;;;;8.20;84.24;100137.06;5035311;28;20537;-79
2022/04/06 06:06:14;;;;;;;14.53;4.50;;;;;;;8.06;83.64;100113.84;5052153;28;20114;-83
2022/04/06 06:08:40;;;;;;;15.87;4.70;;;;;;;8.08;83.32;100118.00;5037468;28;20029;-84
2022/04/06 06:11:05;;;;;;;16.03;4.47;;;;;;;8.09;83.03;100118.81;5039204;28;20042;-86
2022/04/06 06:13:31;;;;;;;17.67;4.33;;;;;;;8.16;83.16;100130.44;5035706;28;20392;-82
2022/04/06 06:15:57;;;;;;;14.90;4.23;;;;;;;8.09;82.98;100108.00;5037721;28;20119;-81
2022/04/06 06:18:25;;;;;;;20.13;4.50;;;;;;;8.17;82.29;100123.16;5040135;28;20028;-79
2022/04/06 06:20:50;;;;;;;14.17;3.90;;;;;;;8.19;80.74;100130.00;5049226;28;20105;-79
2022/04/06 06:23:16;;;;;;;16.03;3.90;;;;;;;8.20;81.75;100123.56;5046691;28;20113;-83
2022/04/06 06:25:41;;;;;;;14.10;3.47;;;;;;;8.20;80.87;100123.56;5046936;28;20530;-79
2022/04/06 06:28:08;;;;;;;11.87;3.47;;;;;;;8.17;80.27;100117.75;5053340;28;20040;-79
2022/04/06 06:30:33;;;;;;;10.27;2.90;;;;;;;8.26;78.99;100125.38;5055746;28;20079;-79
2022/04/06 06:32:59;;;;;;;14.70;3.10;;;;;;;8.31;78.60;100132.84;5052965;28;20028;-78
2022/04/06 06:35:24;;;;;;;11.30;3.03;;;;;;;8.28;77.58;100109.81;5052991;28;20456;-78
2022/04/06 06:37:53;;;;;;;12.57;3.20;;;;;;;8.38;76.53;100127.44;5069182;28;20028;-78
2022/04/06 06:40:20;;;;;;;10.30;3.33;;;;;;;8.33;76.87;100113.75;5055169;28;20029;-80
2022/04/06 06:42:49;;;;;;;10.00;3.57;;;;;;;8.32;75.05;100110.19;5054351;28;20376;-80
2022/04/06 06:45:15;;;;;;;10.60;2.80;;;;;;;8.46;73.72;100121.81;5055004;28;20388;-80
2022/04/06 06:47:41;;;;;;;13.30;2.80;;;;;;;8.47;73.46;100120.75;5056062;28;20350;-78
2022/04/06 06:50:09;;;;;;;9.60;2.33;;;;;;;8.45;72.25;100109.34;5046306;28;20035;-81
2022/04/06 06:52:34;;;;;;;10.07;2.63;;;;;;;8.45;72.46;100107.47;5068882;28;20056;-78
2022/04/06 06:55:01;;;;;;;7.23;2.47;;;;;;;8.49;71.99;100105.19;5055448;28;20086;-78
2022/04/06 06:57:27;;;;;;;9.00;2.63;;;;;;;8.52;72.31;100110.13;5037599;28;20132;-79
2022/04/06 06:59:52;;;;;;;9.83;2.40;;;;;;;8.51;71.33;100100.38;5054764;28;20025;-78
2022/04/06 07:02:18;;;;;;;8.30;2.20;;;;;;;8.49;72.08;100094.38;5071378;28;20373;-79
2022/04/06 07:04:43;;;;;;;10.50;2.20;;;;;;;8.65;71.98;100121.91;5071030;28;20469;-80
2022/04/06 07:07:08;;;;;;;9.17;1.93;;;;;;;8.59;71.24;100102.00;5054240;28;20544;-79
2022/04/06 07:09:34;;;;;;;8.73;2.60;;;;;;;8.66;71.70;100101.97;5053248;28;20025;-82
2022/04/06 07:11:59;;;;;;;8.27;2.00;;;;;;;8.74;71.44;100123.31;5042760;28;20469;-81
2022/04/06 07:14:26;;;;;;;7.40;2.30;;;;;;;8.67;70.60;100106.31;5039668;28;20047;-86
2022/04/06 07:16:52;;;;;;;8.33;2.20;;;;;;;8.68;70.92;100107.97;5042081;28;20037;-81
2022/04/06 07:19:18;;;;;;;7.30;2.40;;;;;;;8.68;71.03;100100.69;5042019;28;20044;-79
2022/04/06 07:21:43;;;;;;;10.80;2.20;;;;;;;8.63;71.38;100083.50;5041999;28;20092;-81
2022/04/06 07:24:08;;;;;;;7.77;2.07;;;;;;;8.68;70.69;100094.47;5040336;28;20137;-81
2022/04/06 07:26:34;;;;;;;8.57;2.50;;;;;;;8.66;70.91;100080.34;5056185;28;20051;-82
2022/04/06 07:29:00;;;;;;;9.43;2.57;;;;;;;8.71;70.44;100084.06;5042075;28;20040;-80
2022/04/06 07:31:25;;;;;;;6.33;2.10;;;;;;;8.69;70.43;100074.50;5042675;28;20455;-87
2022/04/06 07:33:50;;;;;;;9.13;2.03;;;;;;;8.81;70.61;100085.44;5042792;28;20052;-79
2022/04/06 07:36:17;;;;;;;7.97;2.67;;;;;;;8.71;70.51;100077.84;5041844;28;20120;-80
2022/04/06 07:38:43;;;;;;;12.80;2.50;;;;;;;8.74;71.79;100074.69;5042548;28;20024;-85
2022/04/06 07:41:09;;;;;;;9.03;2.60;;;;;;;8.75;71.42;100058.25;5045418;28;20433;-85
2022/04/06 07:43:34;;;;;;;9.00;2.40;;;;;;;8.76;71.97;100075.31;5042397;28;20408;-81
2022/04/06 07:46:00;;;;;;;9.97;2.60;;;;;;;8.73;72.46;100054.13;5040785;28;20048;-80
2022/04/06 07:48:27;;;;;;;10.97;2.70;;;;;;;8.66;73.80;100046.06;5040272;28;20127;-84
2022/04/06 07:50:54;;;;;;;10.23;2.80;;;;;;;8.65;74.34;100055.22;5042037;28;20044;-84
2022/04/06 07:53:19;;;;;;;12.23;3.23;;;;;;;8.76;76.04;100056.41;5042254;28;20086;-83
2022/04/06 07:55:46;;;;;;;10.63;3.40;;;;;;;8.71;76.39;100042.72;5042439;28;20045;-80
2022/04/06 07:58:12;;;;;;;12.73;3.27;;;;;;;8.76;76.95;100040.19;5042799;28;20028;-83
2022/04/06 08:00:37;;;;;;;15.90;4.23;;;;;;;8.84;77.35;100048.03;5042358;28;20093;-80
2022/04/06 08:03:03;;;;;;;12.70;3.70;;;;;;;8.80;77.51;100041.41;5042332;28;20515;-82
2022/04/06 08:05:28;;;;;;;10.00;4.00;;;;;;;9.04;77.21;100074.84;5043175;28;20048;-84
2022/04/06 08:07:54;;;;;;;12.80;3.90;;;;;;;8.86;77.54;100043.22;5041871;28;20036;-83
2022/04/06 08:10:20;;;;;;;15.27;3.93;;;;;;;8.98;78.51;100064.13;5042672;28;20033;-82
2022/04/06 08:12:47;;;;;;;9.63;3.50;;;;;;;8.74;77.74;100037.72;5041513;28;20029;-78
2022/04/06 08:15:14;;;;;;;12.93;4.40;;;;;;;8.84;78.42;100050.72;5044262;28;20041;-81
2022/04/06 08:17:45;;;;;;;9.10;3.90;;;;;;;8.66;77.90;100040.66;5055820;28;20052;-80
2022/04/06 08:20:13;;;;;;;9.20;3.60;;;;;;;8.73;78.55;100067.63;5055534;28;20411;-86
2022/04/06 08:22:39;;;;;;;11.60;3.87;;;;;;;8.69;78.65;100055.59;5041107;28;20522;-83
2022/04/06 08:25:05;;;;;;;15.23;4.20;;;;;;;8.65;78.34;100040.88;5041691;28;20045;-86
2022/04/06 08:27:32;;;;;;;10.73;3.83;;;;;;;8.63;78.03;100045.69;5040286;28;20040;-81
2022/04/06 08:29:59;;;;;;;10.57;4.10;;;;;;;8.61;77.98;100045.91;5041532;28;20029;-83
2022/04/06 08:32:25;;;;;;;13.33;4.13;;;;;;;8.69;78.07;100039.41;5041787;28;20155;-79
2022/04/06 08:34:51;;;;;;;13.27;3.67;;;;;;;8.69;78.78;100048.34;5041322;28;20045;-86
2022/04/06 08:37:17;;;;;;;13.27;4.20;;;;;;;8.78;78.77;100063.25;5043688;28;20033;-79
2022/04/06 08:39:42;;;;;;;12.27;3.70;;;;;;;8.76;77.95;100051.00;5040738;28;20029;-82
2022/04/06 08:42:10;;;;;;;13.43;3.97;;;;;;;8.75;78.15;100044.75;5039302;28;20051;-85
2022/04/06 08:44:35;;;;;;;11.90;4.10;;;;;;;8.80;78.37;100046.81;5043897;28;20537;-79
2022/04/06 08:47:06;;;;;;;13.17;4.10;;;;;;;8.92;77.60;100061.25;5050765;28;20029;-79
2022/04/06 08:49:36;;;;;;;11.47;4.10;;;;;;;8.95;78.20;100066.22;5049479;28;20020;-79
2022/04/06 08:52:06;;;;;;;14.67;4.53;;;;;;;8.89;77.72;100050.88;5051595;28;20467;-79
2022/04/06 08:55:12;;;;;;;10.17;3.40;;;;;;;9.07;78.28;100060.09;5051602;28;20095;-79
2022/04/06 08:57:39;;;;;;;12.13;3.70;;;;;;;8.91;78.48;100037.97;5034477;28;20032;-80
2022/04/06 09:00:05;;;;;;;10.37;3.50;;;;;;;8.82;77.68;100039.31;5052290;28;20342;-79
2022/04/06 09:02:30;;;;;;;9.60;3.47;;;;;;;8.94;78.35;100053.75;5053190;28;21060;-78
2022/04/06 09:04:56;;;;;;;13.60;3.80;;;;;;;8.83;78.53;100043.66;5049498;28;20166;-78
2022/04/06 09:07:23;;;;;;;13.37;3.77;;;;;;;8.88;78.67;100033.03;5051229;28;20092;-79
2022/04/06 09:09:53;;;;;;;10.63;3.87;;;;;;;8.90;79.20;100057.13;5053094;28;20032;-78
2022/04/06 09:16:17;;;;;;;9.10;3.73;;;;;;;8.88;80.46;100045.69;5052263;28;20083;-79
2022/04/06 09:18:48;;;;;;;18.80;4.70;;;;;;;8.94;81.04;100052.94;5029763;28;20041;-79
2022/04/06 09:21:15;;;;;;;14.83;4.10;;;;;;;8.80;81.50;100044.13;5048838;28;20349;-79
2022/04/06 09:23:41;;;;;;;11.00;4.20;;;;;;;8.95;80.95;100052.72;5052548;28;20025;-79
2022/04/06 09:26:13;;;;;;;12.70;4.07;;;;;;;8.71;82.37;100034.63;5051745;28;20035;-79
2022/04/06 09:28:50;;;;;;;13.03;4.30;;;;;;;8.67;83.36;100028.00;5053007;28;20028;-78
2022/04/06 09:31:20;;;;;;;11.13;4.00;;;;;;;8.82;83.56;100054.69;5050268;28;20530;-79
2022/04/06 09:33:57;;;;;;;13.43;3.83;;;;;;;8.80;83.02;100068.41;5044832;28;20059;-80
2022/04/06 09:36:26;;;;;;;15.67;4.40;;;;;;;8.64;82.75;100031.16;5050792;28;20033;-79
2022/04/06 09:38:52;;;;;;;13.77;3.90;;;;;;;8.58;82.88;100028.28;5052032;28;20036;-79
2022/04/06 09:41:19;;;;;;;13.73;4.40;;;;;;;8.75;82.78;100049.34;5052682;28;20082;-79
2022/04/06 09:47:38;;;;;;;12.43;3.93;;;;;;;8.87;82.46;100066.50;5051608;28;20067;-78
2022/04/06 09:50:15;;;;;;;10.77;3.73;;;;;;;8.81;82.27;100031.41;5053298;28;20064;-79
2022/04/06 09:52:42;;;;;;;13.23;4.40;;;;;;;8.71;81.50;100026.53;5053048;28;20029;-79
2022/04/06 09:55:10;;;;;;;12.33;4.13;;;;;;;8.76;82.03;100019.41;5052330;28;20464;-78
2022/04/06 09:57:46;;;;;;;11.63;3.80;;;;;;;8.99;82.69;100054.97;5052427;28;20052;-78
2022/04/06 10:00:18;;;;;;;11.60;4.20;;;;;;;8.93;83.10;100049.41;5051998;28;20017;-80
2022/04/06 10:03:10;;;;;;;11.90;4.17;;;;;;;8.94;83.03;100051.03;5054281;28;20021;-78
2022/04/06 10:05:37;;;;;;;12.20;4.30;;;;;;;8.73;84.52;100003.66;5057098;28;20108;-79
2022/04/06 10:08:05;;;;;;;10.67;4.30;;;;;;;8.72;84.57;100022.78;5055784;28;20025;-80
2022/04/06 10:10:40;;;;;;;14.23;3.87;;;;;;;8.78;84.76;100025.44;5055085;28;20111;-80
2022/04/06 10:13:07;;;;;;;13.50;4.20;;;;;;;8.84;84.83;100033.69;5049980;28;20028;-83
2022/04/06 10:15:35;;;;;;;14.10;5.40;;;;;;;8.83;84.00;100022.06;5054636;28;20052;-82
2022/04/06 10:18:01;;;;;;;9.97;4.30;;;;;;;8.84;84.65;100020.16;5050368;28;20044;-79
2022/04/06 10:20:38;;;;;;;11.33;4.00;;;;;;;9.00;84.08;100045.81;5052426;28;20443;-79
2022/04/06 10:23:30;;;;;;;13.13;4.87;;;;;;;9.01;85.25;100042.06;5055699;28;20048;-80
2022/04/06 10:26:15;;;;;;;14.13;4.80;;;;;;;9.01;85.94;100036.66;5036941;28;20395;-81
2022/04/06 10:28:44;;;;;;;13.02;4.93;;;;;;;8.85;85.34;100011.84;5055392;28;20119;-80
2022/04/06 10:31:18;;;;;;;14.20;4.73;;;;;;;8.82;85.47;100006.88;5055911;28;20033;-79
2022/04/06 10:33:45;;;;;;;13.23;4.83;;;;;;;8.76;86.00;100002.38;5054583;28;20029;-79
2022/04/06 10:36:18;;;;;;;10.53;3.97;;;;;;;8.92;85.93;100023.44;5056474;28;20021;-73
2022/04/06 10:39:10;;;;;;;13.10;4.90;;;;;;;8.83;85.77;100015.84;5054947;28;20055;-79
2022/04/06 10:41:42;;;;;;;11.80;4.03;;;;;;;8.89;85.13;100023.03;5056052;28;20108;-80
2022/04/06 10:44:41;;;;;;;12.37;4.40;;;;;;;8.95;85.25;100023.00;5054123;28;20496;-78
2022/04/06 10:47:11;;;;;;;13.03;4.30;;;;;;;8.67;85.36;99977.50;5053261;28;20438;-79
2022/04/06 10:49:36;;;;;;;7.17;3.97;;;;;;;8.76;86.25;99996.97;5053356;28;20083;-81
2022/04/06 10:55:24;;;;;;;8.60;3.90;;;;;;;8.71;85.34;100016.53;5055685;28;20032;-79
2022/04/06 10:57:59;;;;;;;10.70;4.37;;;;;;;8.64;85.16;99982.53;5038431;28;20036;-79
2022/04/06 11:00:25;;;;;;;11.27;4.00;;;;;;;8.67;84.97;99991.00;5054079;28;20028;-80
2022/04/06 11:02:54;;;;;;;10.80;4.10;;;;;;;8.79;85.28;99996.53;5055696;28;20514;-79
2022/04/06 11:05:43;;;;;;;9.97;3.60;;;;;;;8.94;84.05;100015.09;5054384;28;20040;-79
2022/04/06 11:11:31;;;;;;;8.10;3.85;;;;;;;9.01;83.30;100004.25;5055700;28;20044;-79
2022/04/06 11:13:57;;;;;;;10.33;3.70;;;;;;;8.94;83.63;99994.31;5054236;28;20035;-79
2022/04/06 11:16:48;;;;;;;9.53;3.57;;;;;;;8.87;83.18;99977.34;5052990;28;20108;-79
2022/04/06 11:19:14;;;;;;;8.00;3.40;;;;;;;8.91;82.71;99977.72;5047704;28;20037;-78
2022/04/06 11:21:53;;;;;;;8.87;3.47;;;;;;;9.00;82.60;99978.25;5051856;28;20037;-78
2022/04/06 11:28:11;;;;;;;11.60;3.90;;;;;;;9.20;81.47;99992.41;5055738;28;20087;-78
2022/04/06 11:30:42;;;;;;;8.37;3.60;;;;;;;9.10;81.60;99973.19;5054896;28;20039;-79
2022/04/06 11:33:08;;;;;;;10.03;3.57;;;;;;;9.10;81.32;99967.78;5055308;28;20036;-80
2022/04/06 11:35:36;;;;;;;8.40;3.90;;;;;;;9.24;81.49;99977.38;5054995;28;20041;-80
2022/04/06 11:38:07;;;;;;;8.77;3.50;;;;;;;9.08;80.77;99945.53;5037809;28;20028;-80
2022/04/06 11:40:37;;;;;;;11.87;3.93;;;;;;;9.17;80.97;99946.91;5054262;28;20116;-81
2022/04/06 11:43:05;;;;;;;10.07;3.80;;;;;;;9.16;79.83;99937.13;5055510;28;20032;-78
2022/04/06 11:45:44;;;;;;;9.40;3.70;;;;;;;9.17;79.64;99941.50;5053800;28;20032;-81
2022/04/06 11:48:14;;;;;;;9.30;3.63;;;;;;;9.26;79.75;99948.25;5053166;28;20031;-79
2022/04/06 11:50:41;;;;;;;9.27;3.87;;;;;;;9.50;80.00;99975.44;5070930;28;20035;-80